Time;durP1;ratioP1;P1;durP2;ratioP2;P2;SDS_P1;SDS_P2;PMS_P1;PMS_P2;Temp;Humidity;BMP_temperature;BMP_pressure;BME280_temperature;BME280_humidity;BME280_pressure;Samples;Min_cycle;Max_cycle;Signal;HPM_P1;HPM_P2
2021/12/02 00:02:10;;;;;;;11.05;6.80;;;;;;;8.23;71.66;101074.25;5058878;28;19923;-87
2021/12/02 00:04:38;;;;;;;10.77;6.88;;;;;;;8.54;72.00;101148.44;5059061;28;20021;-86
2021/12/02 00:07:05;;;;;;;12.20;7.32;;;;;;;8.70;72.54;101167.69;5070945;28;20028;-86
2021/12/02 00:09:35;;;;;;;10.55;7.30;;;;;;;8.82;71.62;101191.97;5070453;28;20085;-86
2021/12/02 00:12:01;;;;;;;11.10;6.55;;;;;;;8.50;72.35;101145.53;5070167;28;20036;-86
2021/12/02 00:14:28;;;;;;;11.05;6.88;;;;;;;8.74;72.15;101180.13;5070260;28;20029;-86
2021/12/02 00:22:11;;;;;;;10.45;6.72;;;;;;;8.68;72.24;101191.06;5078333;28;20097;-84
2021/12/02 00:24:39;;;;;;;10.68;6.95;;;;;;;8.79;72.25;101201.31;5059012;28;20456;-84
2021/12/02 00:27:08;;;;;;;9.85;7.20;;;;;;;8.85;72.12;101213.03;5069478;28;20024;-85
2021/12/02 00:29:35;;;;;;;9.85;6.75;;;;;;;8.87;71.94;101210.50;5049914;28;20029;-86
2021/12/02 00:32:06;;;;;;;10.05;6.82;;;;;;;8.64;72.10;101156.91;5070507;28;20043;-85
2021/12/02 00:34:33;;;;;;;10.60;6.90;;;;;;;8.86;71.93;101196.59;5091131;28;20066;-85
2021/12/02 00:36:58;;;;;;;;;;;;;;;8.89;71.72;101193.28;5070369;28;20035;-84
2021/12/02 00:39:24;;;;;;;9.43;6.88;;;;;;;8.62;71.85;101142.88;5069937;28;19916;-85
2021/12/02 00:41:50;;;;;;;9.68;6.90;;;;;;;8.76;72.24;101188.94;5063172;28;20025;-85
2021/12/02 00:44:18;;;;;;;11.30;6.72;;;;;;;8.63;72.29;101174.19;5052626;28;20047;-84
2021/12/02 00:46:45;;;;;;;12.52;7.25;;;;;;;8.81;72.02;101195.38;5068736;28;20082;-85
2021/12/02 00:49:15;;;;;;;10.40;6.60;;;;;;;8.75;72.22;101181.94;5069429;28;20506;-84
2021/12/02 00:51:41;;;;;;;8.65;6.60;;;;;;;8.69;72.02;101165.91;5062385;28;20129;-85
2021/12/02 00:54:10;;;;;;;10.55;6.82;;;;;;;8.73;72.27;101183.56;5049958;28;20021;-85
2021/12/02 00:56:37;;;;;;;10.57;7.00;;;;;;;8.48;72.63;101149.72;5068239;28;20039;-84
2021/12/02 00:59:03;;;;;;;10.40;6.95;;;;;;;8.76;72.31;101182.06;5083106;28;20136;-85
2021/12/02 01:01:35;;;;;;;8.68;6.55;;;;;;;8.72;72.31;101187.88;5121619;27;20090;-85
2021/12/02 01:04:03;;;;;;;9.90;6.80;;;;;;;8.72;72.45;101185.25;5079260;28;20016;-85
2021/12/02 01:06:29;;;;;;;8.38;6.57;;;;;;;8.65;72.40;101172.59;5088919;28;20028;-85
2021/12/02 01:08:55;;;;;;;9.07;6.80;;;;;;;8.46;71.94;101127.91;5077703;28;20429;-86
2021/12/02 01:11:21;;;;;;;8.93;6.30;;;;;;;8.18;72.45;101104.28;5077202;28;20058;-86
2021/12/02 01:13:48;;;;;;;10.25;6.57;;;;;;;8.73;72.04;101178.34;5083664;28;20021;-85
2021/12/02 01:16:14;;;;;;;9.80;6.55;;;;;;;8.61;72.10;101138.44;5083010;28;20059;-85
2021/12/02 01:18:40;;;;;;;9.77;6.82;;;;;;;8.69;72.31;101161.59;5073847;28;20032;-85
2021/12/02 01:21:06;;;;;;;9.82;6.80;;;;;;;8.15;72.19;101064.25;5089215;28;20553;-85
2021/12/02 01:23:33;;;;;;;9.80;7.00;;;;;;;8.47;72.26;101107.19;5106354;28;20102;-85
2021/12/02 01:26:01;;;;;;;10.27;6.78;;;;;;;8.75;71.96;101151.59;5090490;28;20055;-84
2021/12/02 01:28:28;;;;;;;9.07;6.47;;;;;;;8.55;72.05;101121.63;5070985;28;20021;-85
2021/12/02 01:30:54;;;;;;;9.75;6.35;;;;;;;8.37;71.80;101078.72;5083277;28;20036;-84
2021/12/02 01:33:21;;;;;;;9.95;6.95;;;;;;;8.74;72.12;101157.63;5070772;28;20024;-85
2021/12/02 01:35:52;;;;;;;10.23;6.88;;;;;;;8.67;72.18;101154.50;5088392;28;20032;-85
2021/12/02 01:38:18;;;;;;;8.35;6.18;;;;;;;8.46;72.44;101120.09;5086368;28;20039;-85
2021/12/02 01:40:45;;;;;;;9.18;6.47;;;;;;;8.63;72.66;101157.69;5079105;28;20036;-85
2021/12/02 01:43:14;;;;;;;;;;;;;;;8.70;72.38;101157.28;5095379;28;20028;-85
2021/12/02 01:45:40;;;;;;;9.15;6.28;;;;;;;8.42;72.42;101120.69;5089002;28;19951;-85
2021/12/02 01:48:09;;;;;;;9.18;6.47;;;;;;;8.70;72.12;101163.41;5086176;28;20032;-85
2021/12/02 01:50:38;;;;;;;9.55;6.32;;;;;;;8.45;72.48;101123.50;5073267;28;20530;-85
2021/12/02 01:53:05;;;;;;;8.60;6.68;;;;;;;8.70;71.95;101159.88;5090747;28;20105;-85
2021/12/02 01:55:30;;;;;;;;;;;;;;;8.77;71.91;101169.94;5102670;28;20441;-85
2021/12/02 01:58:00;;;;;;;9.38;6.13;;;;;;;8.82;71.73;101165.03;5098559;28;19923;-84
2021/12/02 02:00:46;;;;;;;8.63;6.28;;;;;;;8.68;71.99;101158.91;5055480;28;20044;-85
2021/12/02 02:03:13;;;;;;;8.40;5.88;;;;;;;8.66;72.23;101158.81;5072628;28;20024;-85
2021/12/02 02:05:39;;;;;;;9.40;6.63;;;;;;;8.53;71.93;101131.03;5090211;28;20027;-85
2021/12/02 02:08:16;;;;;;;8.60;6.50;;;;;;;8.59;71.90;101133.13;5055863;28;20032;-85
2021/12/02 02:10:41;;;;;;;;;;;;;;;8.72;72.07;101151.41;5079819;28;20028;-85
2021/12/02 02:13:09;;;;;;;9.02;6.20;;;;;;;8.01;72.06;101046.78;5073731;28;19913;-86
2021/12/02 02:15:41;;;;;;;10.68;6.63;;;;;;;8.37;72.00;101096.91;5073488;28;20027;-86
2021/12/02 02:18:19;;;;;;;9.88;6.50;;;;;;;8.55;71.86;101124.25;5060431;28;20033;-86
2021/12/02 02:23:25;;;;;;;8.38;5.80;;;;;;;8.41;71.70;101098.97;5073634;28;20029;-86
2021/12/02 02:25:50;;;;;;;10.27;6.63;;;;;;;8.64;71.99;101150.00;5072883;28;20027;-85
2021/12/02 02:28:16;;;;;;;7.95;5.93;;;;;;;8.51;72.57;101131.75;5067970;28;20029;-86
2021/12/02 02:30:42;;;;;;;8.23;6.03;;;;;;;8.70;71.88;101142.59;5073294;28;20029;-86
2021/12/02 02:33:11;;;;;;;8.70;6.20;;;;;;;8.48;71.86;101103.78;5071796;28;20024;-86
2021/12/02 02:35:38;;;;;;;8.45;6.22;;;;;;;8.54;71.89;101119.81;5071929;28;20130;-85
2021/12/02 02:38:04;;;;;;;7.38;5.57;;;;;;;8.35;71.60;101075.09;5071011;28;20081;-86
2021/12/02 02:40:31;;;;;;;9.55;6.40;;;;;;;8.43;72.03;101106.88;5073238;28;20025;-85
2021/12/02 02:43:00;;;;;;;9.88;6.65;;;;;;;8.42;71.87;101108.56;5072814;28;20101;-86
2021/12/02 02:45:25;;;;;;;8.93;6.40;;;;;;;8.55;72.00;101137.25;5071054;28;20078;-86
2021/12/02 02:47:52;;;;;;;8.38;6.05;;;;;;;8.35;72.03;101095.91;5072290;28;20784;-84
2021/12/02 02:50:17;;;;;;;;;;;;;;;8.56;72.30;101144.25;5072996;28;20082;-86
2021/12/02 02:52:44;;;;;;;8.32;5.82;;;;;;;8.29;71.86;101085.97;5068888;28;19940;-85
2021/12/02 02:55:20;;;;;;;9.48;6.63;;;;;;;8.55;72.11;101154.53;5062055;28;20107;-85
2021/12/02 03:00:34;;;;;;;7.95;5.68;;;;;;;8.54;72.16;101151.03;5113194;28;20101;-84
2021/12/02 03:05:56;;;;;;;8.88;5.60;;;;;;;8.48;72.42;101137.59;5087645;28;20551;-84
2021/12/02 03:08:30;;;;;;;8.85;5.70;;;;;;;8.47;72.07;101127.13;5097562;28;20020;-84
2021/12/02 03:10:57;;;;;;;9.05;6.25;;;;;;;8.50;72.16;101136.03;5075538;28;20480;-84
2021/12/02 03:13:45;;;;;;;8.45;5.53;;;;;;;8.53;72.46;101141.44;5074281;28;20044;-84
2021/12/02 03:18:55;;;;;;;7.35;5.18;;;;;;;8.51;71.97;101142.16;5098657;28;19976;-84
2021/12/02 03:21:22;;;;;;;8.45;5.47;;;;;;;8.54;72.12;101150.16;5119643;28;20031;-84
2021/12/02 03:23:52;;;;;;;8.20;6.10;;;;;;;8.54;72.09;101148.44;5114772;28;20060;-85
2021/12/02 03:26:18;;;;;;;8.13;5.60;;;;;;;8.47;71.97;101142.75;5120037;27;20023;-85
2021/12/02 03:28:43;;;;;;;6.82;5.38;;;;;;;8.43;72.22;101126.00;5111500;28;20080;-85
2021/12/02 03:31:10;;;;;;;8.68;6.25;;;;;;;8.51;71.80;101127.44;5082366;28;20040;-85
2021/12/02 03:33:35;;;;;;;;;;;;;;;8.59;71.96;101142.66;5123424;27;20027;-84
2021/12/02 03:36:01;;;;;;;8.95;5.85;;;;;;;8.19;71.84;101067.03;5118602;27;19919;-85
2021/12/02 03:38:27;;;;;;;8.75;5.63;;;;;;;8.04;72.34;101059.97;5104782;28;20032;-85
2021/12/02 03:40:53;;;;;;;9.10;5.65;;;;;;;8.52;71.86;101128.31;5111852;28;20020;-85
2021/12/02 03:43:19;;;;;;;8.35;5.80;;;;;;;8.48;72.42;101131.50;5094236;28;20418;-85
2021/12/02 03:45:44;;;;;;;8.68;5.95;;;;;;;8.47;71.85;101119.31;5077347;28;20115;-85
2021/12/02 03:48:10;;;;;;;8.40;6.05;;;;;;;8.35;72.38;101112.41;5107742;28;20034;-85
2021/12/02 03:50:35;;;;;;;7.55;5.50;;;;;;;8.27;72.27;101100.59;5127781;27;20769;-85
2021/12/02 03:53:01;;;;;;;7.50;5.32;;;;;;;8.49;72.20;101130.72;5112024;28;20100;-85
2021/12/02 03:55:28;;;;;;;8.55;6.00;;;;;;;8.26;72.06;101092.69;5109596;28;20479;-86
2021/12/02 03:57:53;;;;;;;8.40;5.53;;;;;;;8.22;72.36;101101.97;5104240;28;20044;-85
2021/12/02 04:00:19;;;;;;;7.93;5.35;;;;;;;8.29;71.84;101082.47;5112023;28;20031;-86
2021/12/02 04:02:44;;;;;;;8.73;5.33;;;;;;;8.32;72.62;101106.13;5111985;28;20118;-85
2021/12/02 04:05:10;;;;;;;7.10;5.32;;;;;;;8.26;72.06;101083.19;5109923;27;20327;-85
2021/12/02 04:07:36;;;;;;;7.53;5.57;;;;;;;8.41;72.02;101098.97;5092055;28;20093;-86
2021/12/02 04:10:02;;;;;;;7.90;5.40;;;;;;;8.46;72.17;101123.59;5110803;28;20039;-85
2021/12/02 04:12:35;;;;;;;6.93;5.13;;;;;;;8.42;72.04;101107.66;5088615;28;20039;-85
2021/12/02 04:17:40;;;;;;;6.93;5.07;;;;;;;8.47;72.17;101132.31;5111277;28;20035;-85
2021/12/02 04:20:17;;;;;;;7.40;5.32;;;;;;;8.35;72.60;101124.53;5089374;28;20577;-85
2021/12/02 04:22:43;;;;;;;9.30;5.65;;;;;;;8.21;71.98;101070.66;5093398;28;20057;-85
2021/12/02 04:25:09;;;;;;;;;;;;;;;8.56;71.79;101114.72;5110510;28;20040;-85
2021/12/02 04:27:34;;;;;;;7.13;5.00;;;;;;;8.22;71.49;101046.47;5108757;28;19938;-85
2021/12/02 04:30:02;;;;;;;9.25;5.38;;;;;;;7.89;72.25;101028.63;5092666;28;20092;-85
2021/12/02 04:32:28;;;;;;;8.27;5.47;;;;;;;8.00;72.22;101039.78;5095924;28;20028;-85
2021/12/02 04:34:53;;;;;;;8.32;5.40;;;;;;;7.72;72.21;101004.06;5110702;28;20023;-84
2021/12/02 04:37:19;;;;;;;7.82;5.35;;;;;;;8.11;72.35;101064.84;5084808;28;20088;-85
2021/12/02 04:39:45;;;;;;;6.28;5.30;;;;;;;7.94;72.09;101022.06;5094962;28;20036;-85
2021/12/02 04:42:10;;;;;;;8.20;5.65;;;;;;;8.40;72.29;101106.63;5110995;28;20450;-84
2021/12/02 04:44:36;;;;;;;6.72;5.35;;;;;;;7.73;71.91;100987.69;5097695;28;20024;-85
2021/12/02 04:47:01;;;;;;;7.40;5.53;;;;;;;8.32;72.11;101103.53;5110877;28;20571;-85
2021/12/02 04:49:27;;;;;;;7.88;5.60;;;;;;;8.35;72.08;101091.59;5107587;28;20032;-85
2021/12/02 04:51:53;;;;;;;7.53;5.38;;;;;;;8.22;71.80;101062.97;5107805;28;20426;-85
2021/12/02 04:54:18;;;;;;;7.00;4.90;;;;;;;8.34;71.89;101107.13;5110941;28;20490;-85
2021/12/02 04:56:44;;;;;;;7.27;5.03;;;;;;;7.97;71.89;101046.47;5096922;28;20019;-85
2021/12/02 04:59:10;;;;;;;6.47;5.17;;;;;;;8.35;71.61;101085.50;5092857;28;20304;-86
2021/12/02 05:01:35;;;;;;;7.63;5.28;;;;;;;8.16;71.68;101059.94;5094559;28;20682;-85
2021/12/02 05:04:01;;;;;;;8.85;5.43;;;;;;;8.27;71.53;101068.47;5081099;28;20055;-86
2021/12/02 05:06:27;;;;;;;7.15;5.28;;;;;;;8.43;71.80;101115.59;5096756;28;20043;-84
2021/12/02 05:08:52;;;;;;;6.68;4.90;;;;;;;8.42;71.94;101118.06;5086245;28;20059;-84
2021/12/02 05:11:18;;;;;;;7.63;5.32;;;;;;;8.55;71.46;101115.50;5090769;28;20047;-85
2021/12/02 05:13:43;;;;;;;6.88;5.25;;;;;;;8.22;71.51;101064.66;5094850;28;20478;-84
2021/12/02 05:16:09;;;;;;;8.13;5.78;;;;;;;8.34;71.95;101114.94;5111429;28;20020;-84
2021/12/02 05:18:35;;;;;;;8.60;5.50;;;;;;;8.37;71.82;101104.72;5078593;28;20609;-85
2021/12/02 05:21:01;;;;;;;8.10;5.70;;;;;;;8.28;71.52;101081.59;5089276;28;20024;-85
2021/12/02 05:23:27;;;;;;;7.43;5.45;;;;;;;8.26;71.85;101091.00;5091968;28;20089;-85
2021/12/02 05:25:52;;;;;;;8.25;5.70;;;;;;;8.11;72.38;101101.25;5092731;28;20023;-83
2021/12/02 05:28:18;;;;;;;6.70;5.30;;;;;;;8.27;72.42;101123.09;5080801;28;20040;-83
2021/12/02 05:30:45;;;;;;;7.57;5.40;;;;;;;8.29;72.32;101118.91;5094498;28;20320;-83
2021/12/02 05:33:11;;;;;;;8.55;5.88;;;;;;;8.41;71.93;101116.28;5100533;28;20502;-84
2021/12/02 05:35:36;;;;;;;8.63;5.70;;;;;;;7.73;71.94;101015.41;5122972;28;20028;-83
2021/12/02 05:38:03;;;;;;;7.63;5.28;;;;;;;8.35;72.01;101117.63;5092535;28;20033;-85
2021/12/02 05:40:28;;;;;;;7.18;5.28;;;;;;;7.70;72.08;101025.56;5110485;28;20035;-84
2021/12/02 05:42:54;;;;;;;8.05;5.45;;;;;;;7.97;72.23;101067.28;5096992;28;20506;-84
2021/12/02 05:45:20;;;;;;;7.60;5.50;;;;;;;8.17;71.85;101072.16;5080038;28;20032;-85
2021/12/02 05:47:45;;;;;;;7.72;5.53;;;;;;;7.99;71.59;101042.28;5108669;28;20019;-85
2021/12/02 05:50:11;;;;;;;7.50;5.63;;;;;;;8.21;71.50;101089.75;5100160;28;20032;-86
2021/12/02 05:52:37;;;;;;;7.18;5.45;;;;;;;8.29;72.05;101134.53;5090221;28;20043;-85
2021/12/02 05:55:03;;;;;;;7.40;5.40;;;;;;;8.33;72.05;101133.94;5088765;28;20024;-85
2021/12/02 05:57:28;;;;;;;7.45;5.18;;;;;;;8.33;72.05;101140.03;5100328;28;20050;-84
2021/12/02 05:59:54;;;;;;;7.20;5.20;;;;;;;8.43;71.62;101139.00;5112783;28;20031;-84
2021/12/02 06:02:20;;;;;;;9.33;5.80;;;;;;;8.23;72.01;101123.69;5105875;28;20090;-85
2021/12/02 06:04:50;;;;;;;8.20;5.40;;;;;;;8.25;71.41;101104.78;5106660;28;20707;-85
2021/12/02 06:07:16;;;;;;;7.63;5.28;;;;;;;8.18;72.13;101115.56;5090975;28;20028;-85
2021/12/02 06:09:41;;;;;;;6.78;5.25;;;;;;;8.11;72.10;101097.75;5090366;28;20034;-85
2021/12/02 06:12:07;;;;;;;8.95;5.20;;;;;;;8.06;72.04;101099.09;5095535;28;20063;-85
2021/12/02 06:14:33;;;;;;;7.28;5.00;;;;;;;8.18;72.34;101135.50;5093286;28;20015;-85
2021/12/02 06:16:58;;;;;;;8.27;5.40;;;;;;;8.06;71.63;101093.91;5096634;28;20027;-85
2021/12/02 06:19:24;;;;;;;7.97;5.25;;;;;;;8.28;71.81;101137.94;5094143;28;20051;-86
2021/12/02 06:21:51;;;;;;;8.85;5.72;;;;;;;8.14;72.14;101116.16;5083039;28;20153;-86
2021/12/02 06:24:17;;;;;;;8.02;5.53;;;;;;;8.26;72.11;101137.81;5096691;28;20032;-84
2021/12/02 06:26:43;;;;;;;7.45;5.10;;;;;;;8.22;72.18;101134.91;5083276;28;20028;-84
2021/12/02 06:29:08;;;;;;;8.30;5.57;;;;;;;8.13;71.86;101117.84;5097766;28;20028;-84
2021/12/02 06:31:34;;;;;;;7.60;5.40;;;;;;;8.12;72.23;101126.44;5102967;28;20495;-84
2021/12/02 06:34:02;;;;;;;7.68;5.22;;;;;;;7.98;72.14;101100.28;5096987;28;20031;-86
2021/12/02 06:36:27;;;;;;;7.13;5.03;;;;;;;8.22;72.27;101132.31;5087080;28;20024;-85
2021/12/02 06:38:53;;;;;;;7.95;5.18;;;;;;;7.68;72.05;101048.88;5107903;28;20508;-85
2021/12/02 06:41:18;;;;;;;7.53;5.63;;;;;;;8.08;72.13;101116.63;5093927;28;20036;-84
2021/12/02 06:43:45;;;;;;;8.02;5.40;;;;;;;7.55;72.12;101020.19;5106739;28;20023;-85
2021/12/02 06:46:10;;;;;;;7.53;5.32;;;;;;;8.10;72.43;101128.03;5094989;28;20111;-86
2021/12/02 06:48:36;;;;;;;6.85;5.15;;;;;;;8.09;72.33;101117.56;5113530;28;20103;-84
2021/12/02 06:51:02;;;;;;;8.43;5.35;;;;;;;7.89;72.31;101078.03;5113884;28;20042;-84
2021/12/02 06:53:27;;;;;;;8.20;5.38;;;;;;;7.93;72.17;101094.75;5113673;28;20636;-84
2021/12/02 06:55:53;;;;;;;7.85;5.38;;;;;;;7.92;72.79;101101.66;5079938;28;20586;-84
2021/12/02 06:58:19;;;;;;;7.68;5.72;;;;;;;7.83;72.29;101077.63;5107979;28;20044;-85
2021/12/02 07:00:44;;;;;;;7.25;5.18;;;;;;;8.10;72.38;101120.22;5078055;28;20395;-85
2021/12/02 07:03:10;;;;;;;8.20;5.28;;;;;;;7.85;72.54;101070.84;5109665;28;20067;-83
2021/12/02 07:05:35;;;;;;;8.32;5.80;;;;;;;7.60;72.06;101041.31;5088081;28;20103;-83
2021/12/02 07:08:02;;;;;;;6.80;5.25;;;;;;;8.08;72.58;101123.53;5105046;28;20041;-83
2021/12/02 07:10:29;;;;;;;;;;;;;;;8.09;73.10;101139.25;5112301;28;20049;-84
2021/12/02 07:12:56;;;;;;;7.90;4.80;;;;;;;7.84;72.81;101089.81;5111647;28;19911;-85
2021/12/02 07:15:29;;;;;;;7.00;5.25;;;;;;;8.16;72.75;101148.38;5107987;28;20020;-83
2021/12/02 07:17:57;;;;;;;6.85;4.90;;;;;;;8.12;72.96;101142.06;5086411;28;20030;-82
2021/12/02 07:20:29;;;;;;;7.57;5.35;;;;;;;8.23;72.45;101148.00;5110148;28;20024;-82
2021/12/02 07:22:56;;;;;;;6.90;5.25;;;;;;;7.76;72.81;101083.19;5076180;28;20028;-84
2021/12/02 07:25:22;;;;;;;8.52;5.50;;;;;;;8.16;72.62;101137.97;5110415;28;20490;-86
2021/12/02 07:27:48;;;;;;;7.70;5.40;;;;;;;8.08;73.15;101136.53;5129035;27;20027;-85
2021/12/02 07:30:14;;;;;;;7.57;5.50;;;;;;;8.18;72.82;101136.38;5101987;28;20039;-84
2021/12/02 07:32:41;;;;;;;7.28;5.00;;;;;;;8.08;73.02;101129.63;5075717;28;20082;-82
2021/12/02 07:35:14;;;;;;;8.52;5.50;;;;;;;8.11;72.58;101101.25;5102356;28;20016;-81
2021/12/02 07:37:42;;;;;;;7.72;5.10;;;;;;;8.18;72.62;101125.97;5101555;28;20419;-82
2021/12/02 07:40:08;;;;;;;7.88;5.55;;;;;;;8.06;72.97;101115.63;5121864;27;20035;-84
2021/12/02 07:42:34;;;;;;;8.60;6.10;;;;;;;8.09;73.01;101122.75;5090214;28;20172;-84
2021/12/02 07:44:59;;;;;;;7.60;5.32;;;;;;;8.10;72.94;101119.34;5090562;28;20115;-82
2021/12/02 07:47:26;;;;;;;7.65;5.25;;;;;;;7.94;72.82;101092.28;5089369;28;20024;-84
2021/12/02 07:49:51;;;;;;;7.28;5.20;;;;;;;8.18;72.80;101130.28;5072659;28;20419;-83
2021/12/02 07:52:22;;;;;;;7.32;5.43;;;;;;;8.07;72.41;101099.22;5091638;28;20028;-85
2021/12/02 07:54:50;;;;;;;7.07;5.18;;;;;;;8.23;72.64;101121.09;5091582;28;20024;-83
2021/12/02 07:57:16;;;;;;;7.72;5.40;;;;;;;8.12;72.61;101115.16;5090614;28;20048;-84
2021/12/02 07:59:41;;;;;;;;;;;;;;;8.29;72.54;101134.53;5090587;28;20047;-83
2021/12/02 08:02:13;;;;;;;8.00;5.57;;;;;;;8.19;72.88;101135.59;5091485;28;19912;-81
2021/12/02 08:04:39;;;;;;;7.32;5.43;;;;;;;8.13;72.61;101112.66;5094436;28;20067;-82
2021/12/02 08:07:05;;;;;;;7.95;5.10;;;;;;;8.21;72.50;101133.97;5112526;28;20089;-82
2021/12/02 08:09:30;;;;;;;7.57;5.10;;;;;;;8.19;72.66;101121.66;5079986;28;20487;-83
2021/12/02 08:11:59;;;;;;;7.15;5.45;;;;;;;8.25;72.91;101135.09;5112008;28;20023;-84
2021/12/02 08:14:25;;;;;;;8.10;5.18;;;;;;;8.23;72.90;101129.78;5079857;28;20406;-82
2021/12/02 08:16:51;;;;;;;7.63;5.25;;;;;;;8.25;72.72;101133.41;5112094;28;20088;-83
2021/12/02 08:19:18;;;;;;;9.40;6.05;;;;;;;8.23;72.72;101131.50;5094110;28;20502;-83
2021/12/02 08:21:43;;;;;;;8.00;5.70;;;;;;;8.25;72.77;101135.09;5085396;28;20028;-87
2021/12/02 08:24:09;;;;;;;7.50;5.20;;;;;;;7.92;73.15;101090.38;5109232;28;20554;-89
2021/12/02 08:26:35;;;;;;;8.25;5.45;;;;;;;7.92;73.11;101095.56;5093889;28;20034;-88
2021/12/02 08:29:02;;;;;;;7.90;5.43;;;;;;;8.10;73.27;101138.44;5082017;28;20515;-85
2021/12/02 08:31:27;;;;;;;6.45;5.00;;;;;;;8.12;73.25;101135.94;5091134;28;20028;-85
2021/12/02 08:33:54;;;;;;;7.65;5.32;;;;;;;8.01;73.27;101108.31;5101361;28;20409;-86
2021/12/02 08:36:24;;;;;;;7.75;5.47;;;;;;;8.27;72.57;101138.72;5111459;28;20031;-88
2021/12/02 08:38:51;;;;;;;6.97;5.28;;;;;;;7.46;72.91;101012.66;5085686;28;20016;-88
2021/12/02 08:41:19;;;;;;;7.13;5.10;;;;;;;8.13;73.52;101138.66;5106352;28;20036;-88
2021/12/02 08:43:49;;;;;;;8.40;5.28;;;;;;;8.00;73.27;101106.47;5085881;28;20541;-88
2021/12/02 08:46:19;;;;;;;9.05;5.60;;;;;;;7.77;73.52;101085.00;5073069;28;20510;-89
2021/12/02 08:48:46;;;;;;;6.78;5.25;;;;;;;8.04;73.36;101119.81;5095666;28;20016;-88
2021/12/02 08:51:13;;;;;;;7.70;5.30;;;;;;;7.93;73.60;101107.75;5072901;28;20052;-88
2021/12/02 08:53:38;;;;;;;6.72;4.90;;;;;;;7.74;73.82;101075.25;5105674;28;20023;-88
2021/12/02 08:56:04;;;;;;;7.95;5.13;;;;;;;8.08;73.81;101136.53;5098549;28;20028;-88
2021/12/02 08:58:29;;;;;;;6.75;5.20;;;;;;;7.85;73.68;101094.25;5107101;28;20051;-89
2021/12/02 09:01:17;;;;;;;7.45;5.43;;;;;;;8.09;73.64;101123.66;5091318;28;20032;-90
2021/12/02 09:03:42;;;;;;;8.23;5.60;;;;;;;7.93;73.59;101097.34;5069801;28;20034;-88
2021/12/02 09:06:11;;;;;;;8.07;5.55;;;;;;;8.16;73.67;101114.56;5079879;28;20114;-90
2021/12/02 09:08:38;;;;;;;6.32;4.80;;;;;;;8.08;73.71;101128.72;5116739;28;20078;-90
2021/12/02 09:11:05;;;;;;;7.18;5.07;;;;;;;8.16;73.32;101098.94;5065732;28;20058;-90
2021/12/02 09:13:31;;;;;;;6.82;4.80;;;;;;;8.00;73.60;101093.47;5107177;28;20498;-88
2021/12/02 09:15:57;;;;;;;6.10;4.90;;;;;;;8.00;73.52;101084.00;5094221;28;20081;-87
2021/12/02 09:18:23;;;;;;;6.90;5.18;;;;;;;8.25;73.60;101102.19;5097712;28;20498;-86
2021/12/02 09:20:49;;;;;;;6.80;5.07;;;;;;;8.29;72.96;101101.59;5077491;28;20036;-86
2021/12/02 09:23:15;;;;;;;8.30;5.35;;;;;;;7.94;73.23;101032.47;5078750;28;20080;-85
2021/12/02 09:25:41;;;;;;;7.47;5.10;;;;;;;8.21;73.40;101087.16;5090360;28;20042;-86
2021/12/02 09:28:08;;;;;;;7.05;5.00;;;;;;;8.24;73.26;101079.56;5089359;28;20085;-84
2021/12/02 09:30:34;;;;;;;6.70;5.03;;;;;;;8.09;73.77;101056.03;5089987;28;20509;-85
2021/12/02 09:33:00;;;;;;;7.10;5.32;;;;;;;8.08;72.84;101019.50;5070806;28;20024;-84
2021/12/02 09:35:26;;;;;;;7.13;5.50;;;;;;;8.25;73.14;101063.16;5090247;28;20017;-84
2021/12/02 09:37:52;;;;;;;6.85;5.00;;;;;;;8.26;72.77;101023.34;5089241;28;20024;-84
2021/12/02 09:40:18;;;;;;;8.07;5.03;;;;;;;8.49;72.26;101047.44;5090534;28;20497;-84
2021/12/02 09:42:45;;;;;;;7.20;4.88;;;;;;;8.25;73.59;101042.34;5089737;28;20031;-85
2021/12/02 09:45:13;;;;;;;7.97;5.25;;;;;;;8.33;72.97;101033.34;5072613;28;20024;-84
2021/12/02 09:47:43;;;;;;;6.82;4.82;;;;;;;8.48;72.60;101020.50;5103446;28;20049;-85
2021/12/02 09:50:15;;;;;;;9.23;5.20;;;;;;;8.32;73.00;101036.78;5086843;28;20792;-84
2021/12/02 09:52:42;;;;;;;7.20;4.75;;;;;;;8.11;73.14;100988.50;5103184;28;20028;-85
2021/12/02 09:55:19;;;;;;;7.60;5.20;;;;;;;8.13;73.35;100990.41;5108399;28;20032;-85
2021/12/02 09:57:50;;;;;;;6.90;5.03;;;;;;;8.41;72.67;101017.41;5093359;28;20031;-85
2021/12/02 10:00:19;;;;;;;8.27;5.38;;;;;;;8.28;73.45;101016.53;5077302;28;20113;-85
2021/12/02 10:03:05;;;;;;;7.63;5.10;;;;;;;8.13;73.06;100977.41;5128005;27;20058;-84
2021/12/02 10:05:38;;;;;;;7.03;4.93;;;;;;;8.43;72.90;101015.81;5114928;28;20024;-84
2021/12/02 10:08:07;;;;;;;6.00;4.68;;;;;;;8.36;73.02;101009.25;5083052;28;20050;-86
2021/12/02 10:10:38;;;;;;;7.20;4.93;;;;;;;8.01;73.43;100963.56;5084108;28;20487;-86
2021/12/02 10:13:08;;;;;;;7.78;5.22;;;;;;;8.28;73.53;101008.75;5114503;28;20027;-86
2021/12/02 10:15:37;;;;;;;7.65;5.35;;;;;;;8.14;73.81;100988.69;5096469;28;20516;-85
2021/12/02 10:18:13;;;;;;;8.63;5.40;;;;;;;8.03;73.97;100972.38;5098739;28;20027;-85
2021/12/02 10:20:49;;;;;;;7.88;5.18;;;;;;;8.11;73.93;100981.59;5113643;28;20073;-86
2021/12/02 10:25:58;;;;;;;6.68;4.82;;;;;;;7.95;73.65;100940.63;5105229;28;20027;-85
2021/12/02 10:28:25;;;;;;;8.25;4.80;;;;;;;8.01;73.93;100949.66;5114526;28;20034;-85
2021/12/02 10:30:57;;;;;;;6.75;5.03;;;;;;;8.24;73.68;100980.72;5114843;28;20076;-86
2021/12/02 10:33:45;;;;;;;7.43;5.10;;;;;;;8.06;73.97;100958.66;5096477;28;20072;-86
2021/12/02 10:36:36;;;;;;;6.45;4.85;;;;;;;8.06;74.22;100959.56;5093475;28;20063;-86
2021/12/02 10:39:18;;;;;;;8.18;4.85;;;;;;;8.15;74.25;100960.19;5093552;28;20028;-85
2021/12/02 10:41:46;;;;;;;7.10;5.10;;;;;;;8.22;74.15;100968.41;5092188;28;20020;-86
2021/12/02 10:44:20;;;;;;;7.20;4.97;;;;;;;8.57;72.90;100965.53;5085716;28;20040;-85
2021/12/02 10:47:03;;;;;;;8.38;5.30;;;;;;;8.48;72.90;100951.94;5092564;28;20027;-85
2021/12/02 10:49:35;;;;;;;8.02;5.07;;;;;;;8.12;73.86;100912.25;5093632;28;20092;-85
2021/12/02 10:52:04;;;;;;;7.63;4.80;;;;;;;8.18;74.00;100946.47;5092073;28;20152;-84
2021/12/02 10:54:35;;;;;;;6.53;4.88;;;;;;;8.34;73.86;100953.63;5093359;28;20410;-86
2021/12/02 10:57:21;;;;;;;5.80;4.60;;;;;;;8.31;73.88;100949.09;5093108;28;20048;-85
2021/12/02 10:59:51;;;;;;;7.03;5.18;;;;;;;8.24;74.29;100946.00;5107831;28;20142;-84
2021/12/02 11:02:35;;;;;;;6.25;4.53;;;;;;;8.38;73.97;100944.28;5130177;27;20058;-85
2021/12/02 11:05:03;;;;;;;5.72;4.80;;;;;;;8.32;73.94;100944.81;5102171;28;20538;-87
2021/12/02 11:07:31;;;;;;;7.03;5.05;;;;;;;8.09;74.27;100901.66;5094455;28;20157;-88
2021/12/02 11:10:02;;;;;;;8.27;5.35;;;;;;;8.09;73.78;100894.75;5106287;28;20028;-88
2021/12/02 11:12:33;;;;;;;8.38;5.00;;;;;;;8.31;73.97;100927.38;5092919;28;20182;-86
2021/12/02 11:15:09;;;;;;;7.32;4.80;;;;;;;8.35;73.95;100929.38;5094977;28;20016;-86
2021/12/02 11:17:50;;;;;;;8.65;5.10;;;;;;;8.23;73.95;100898.25;5108194;28;20108;-86
2021/12/02 11:20:20;;;;;;;7.72;5.03;;;;;;;8.12;73.95;100876.75;5091221;28;20101;-86
2021/12/02 11:22:46;;;;;;;6.95;4.75;;;;;;;8.17;74.13;100892.69;5098622;28;20026;-86
2021/12/02 11:25:13;;;;;;;7.97;4.65;;;;;;;8.38;74.04;100919.16;5095439;28;20108;-86
2021/12/02 11:27:42;;;;;;;6.78;4.53;;;;;;;8.36;74.07;100916.47;5059695;28;20457;-86
2021/12/02 11:30:08;;;;;;;7.25;4.85;;;;;;;8.46;73.68;100907.59;5102082;28;20043;-85
2021/12/02 11:32:39;;;;;;;8.05;4.93;;;;;;;8.47;74.10;100903.31;5103303;28;20031;-86
2021/12/02 11:35:12;;;;;;;6.38;4.72;;;;;;;8.42;74.03;100904.69;5094793;28;20112;-85
2021/12/02 11:37:41;;;;;;;8.38;4.82;;;;;;;8.33;74.14;100894.56;5082238;28;20098;-84
2021/12/02 11:40:17;;;;;;;7.88;4.97;;;;;;;8.40;74.06;100894.13;5090675;28;20021;-83
2021/12/02 11:42:44;;;;;;;7.78;4.72;;;;;;;8.42;73.99;100894.28;5072968;28;20024;-84
2021/12/02 11:45:12;;;;;;;7.60;4.93;;;;;;;8.45;73.69;100890.19;5089375;28;20031;-84
2021/12/02 11:47:38;;;;;;;6.85;5.00;;;;;;;8.34;73.88;100871.25;5090597;28;20107;-83
2021/12/02 11:50:07;;;;;;;7.13;5.05;;;;;;;8.42;74.13;100884.78;5091970;28;20569;-84
2021/12/02 11:52:35;;;;;;;6.70;4.72;;;;;;;8.57;73.24;100874.44;5092021;28;20035;-84
2021/12/02 11:55:02;;;;;;;7.43;4.85;;;;;;;8.51;73.80;100876.69;5104470;28;20098;-84
2021/12/02 11:57:30;;;;;;;6.90;4.72;;;;;;;8.46;73.64;100868.56;5090425;28;20046;-83
2021/12/02 11:59:55;;;;;;;6.63;4.60;;;;;;;8.49;73.87;100871.38;5090842;28;20078;-84